Time;durP1;ratioP1;P1;durP2;ratioP2;P2;SDS_P1;SDS_P2;PMS_P1;PMS_P2;Temp;Humidity;BMP_temperature;BMP_pressure;BME280_temperature;BME280_humidity;BME280_pressure;Samples;Min_cycle;Max_cycle;Signal;HPM_P1;HPM_P2
2022/11/20 00:01:12;;;;;;;8.63;7.30;;;;;;;3.36;100.00;100714.48;1785208;79;22278;-62
2022/11/20 00:03:41;;;;;;;9.13;6.78;;;;;;;3.28;100.00;100719.45;1810359;78;20865;-62
2022/11/20 00:06:11;;;;;;;8.30;7.00;;;;;;;3.21;100.00;100728.61;1818652;78;20960;-71
2022/11/20 00:08:38;;;;;;;9.10;7.92;;;;;;;3.15;100.00;100739.77;1818762;78;21066;-61
2022/11/20 00:11:13;;;;;;;9.90;8.20;;;;;;;3.12;100.00;100750.31;1818782;78;20956;-62
2022/11/20 00:13:40;;;;;;;9.90;8.23;;;;;;;3.11;100.00;100753.83;1818257;78;22303;-62
2022/11/20 00:16:08;;;;;;;9.40;8.03;;;;;;;3.11;100.00;100750.44;1818023;78;20940;-81
2022/11/20 00:18:35;;;;;;;9.45;7.95;;;;;;;3.15;100.00;100749.25;1805759;78;21008;-62
2022/11/20 00:21:06;;;;;;;11.05;9.50;;;;;;;3.23;100.00;100740.91;1786474;79;20946;-63
2022/11/20 00:23:33;;;;;;;10.30;8.68;;;;;;;3.27;100.00;100743.11;1785107;80;20962;-71
2022/11/20 00:26:09;;;;;;;9.25;7.30;;;;;;;3.25;100.00;100751.89;1804313;78;21249;-80
2022/11/20 00:28:37;;;;;;;12.03;9.40;;;;;;;3.22;100.00;100746.98;1812249;79;21026;-62
2022/11/20 00:31:10;;;;;;;13.03;9.00;;;;;;;3.23;100.00;100742.20;1812277;79;21061;-62
2022/11/20 00:33:37;;;;;;;10.88;8.30;;;;;;;3.24;100.00;100754.95;1811747;79;20912;-61
2022/11/20 00:36:08;;;;;;;11.35;9.50;;;;;;;3.25;100.00;100751.42;1811890;79;21050;-71
2022/11/20 00:38:35;;;;;;;13.70;10.45;;;;;;;3.22;100.00;100745.25;1812283;79;21817;-61
2022/11/20 00:41:05;;;;;;;9.95;8.63;;;;;;;3.23;100.00;100755.08;1812460;79;21573;-62
2022/11/20 00:43:33;;;;;;;10.72;8.23;;;;;;;3.24;100.00;100754.13;1812153;79;21530;-61
2022/11/20 00:46:01;;;;;;;10.70;9.00;;;;;;;3.21;100.00;100763.39;1811632;79;20975;-62
2022/11/20 00:48:28;;;;;;;9.80;8.38;;;;;;;3.17;100.00;100767.49;1812582;79;21556;-66
2022/11/20 00:50:57;;;;;;;11.80;9.68;;;;;;;3.13;100.00;100768.67;1812385;78;20979;-61
2022/11/20 00:53:24;;;;;;;9.63;7.80;;;;;;;3.13;100.00;100766.58;1811585;78;20991;-62
2022/11/20 00:55:59;;;;;;;10.65;8.45;;;;;;;3.15;100.00;100771.96;1812176;79;21034;-81
2022/11/20 00:58:33;;;;;;;12.35;10.08;;;;;;;3.14;100.00;100771.63;1812477;79;21038;-62
2022/11/20 01:01:03;;;;;;;11.35;9.65;;;;;;;3.17;100.00;100782.95;1812270;79;20876;-82
2022/11/20 01:03:35;;;;;;;9.90;8.45;;;;;;;3.11;100.00;100779.59;1810227;79;21273;-63
2022/11/20 01:06:07;;;;;;;11.38;9.60;;;;;;;3.07;100.00;100770.47;1800632;79;20869;-61
2022/11/20 01:08:36;;;;;;;11.93;10.28;;;;;;;3.04;100.00;100776.33;1800422;79;21030;-80
2022/11/20 01:11:05;;;;;;;11.25;9.33;;;;;;;3.04;100.00;100777.15;1800246;79;20971;-64
2022/11/20 01:13:37;;;;;;;12.28;10.10;;;;;;;3.06;100.00;100793.76;1792662;79;21479;-65
2022/11/20 01:16:09;;;;;;;13.25;10.65;;;;;;;3.06;100.00;100794.57;1777337;79;21133;-66
2022/11/20 01:18:37;;;;;;;12.50;10.15;;;;;;;3.04;100.00;100800.33;1777077;80;21034;-82
2022/11/20 01:21:07;;;;;;;12.98;9.95;;;;;;;3.07;100.00;100801.38;1792455;79;21309;-64
2022/11/20 01:23:36;;;;;;;12.58;10.43;;;;;;;3.13;100.00;100797.02;1800555;79;20992;-63
2022/11/20 01:26:06;;;;;;;11.12;9.33;;;;;;;3.17;100.00;100782.13;1800233;79;21506;-66
2022/11/20 01:28:34;;;;;;;11.90;9.55;;;;;;;3.22;100.00;100783.05;1781520;79;21125;-82
2022/11/20 01:31:01;;;;;;;12.45;10.30;;;;;;;3.24;100.00;100776.03;1777670;79;21489;-65
2022/11/20 01:33:29;;;;;;;11.97;10.18;;;;;;;3.23;100.00;100765.38;1777525;80;20990;-79
2022/11/20 01:36:04;;;;;;;10.85;9.10;;;;;;;3.23;100.00;100773.11;1777406;79;20991;-61
2022/11/20 01:38:32;;;;;;;13.45;9.55;;;;;;;3.24;100.00;100762.67;1777479;79;20951;-62
2022/11/20 01:40:59;;;;;;;12.23;10.03;;;;;;;3.27;100.00;100769.35;1799424;79;21235;-60
2022/11/20 01:43:26;;;;;;;11.30;8.65;;;;;;;3.25;100.00;100772.03;1807546;79;20959;-80
2022/11/20 01:46:01;;;;;;;11.00;9.08;;;;;;;3.26;100.00;100776.27;1807764;79;22431;-62
2022/11/20 01:48:33;;;;;;;11.35;9.13;;;;;;;3.21;100.00;100777.55;1808239;79;20948;-67
2022/11/20 01:51:00;;;;;;;11.45;9.35;;;;;;;3.18;100.00;100787.62;1808607;79;21050;-61
2022/11/20 01:53:31;;;;;;;10.00;7.90;;;;;;;3.15;100.00;100789.18;1807331;79;22016;-61
2022/11/20 01:56:00;;;;;;;8.95;6.92;;;;;;;3.14;100.00;100793.96;1808393;79;20924;-61
2022/11/20 01:58:32;;;;;;;11.40;9.30;;;;;;;3.15;100.00;100803.34;1808222;78;21520;-66
2022/11/20 02:01:00;;;;;;;10.00;7.72;;;;;;;3.07;100.00;100793.66;1807727;78;21259;-69
2022/11/20 02:03:27;;;;;;;10.55;7.72;;;;;;;2.98;100.00;100804.66;1807400;79;21433;-63
2022/11/20 02:06:14;;;;;;;10.72;8.70;;;;;;;2.91;100.00;100809.94;1773483;79;21604;-61
2022/11/20 02:08:42;;;;;;;10.72;8.53;;;;;;;2.86;100.00;100799.19;1801752;79;21288;-77
2022/11/20 02:11:10;;;;;;;12.47;9.40;;;;;;;2.85;100.00;100805.29;1802001;79;20948;-62
2022/11/20 02:13:43;;;;;;;11.28;8.73;;;;;;;2.90;100.00;100809.13;1802443;78;20997;-62
2022/11/20 02:16:20;;;;;;;11.83;8.83;;;;;;;2.92;100.00;100802.59;1802034;78;20986;-62
2022/11/20 02:18:47;;;;;;;10.98;8.43;;;;;;;2.91;100.00;100795.78;1798498;78;21485;-63
2022/11/20 02:21:35;;;;;;;12.47;9.13;;;;;;;2.89;100.00;100802.82;1802432;78;20912;-63
2022/11/20 02:24:06;;;;;;;11.85;8.80;;;;;;;2.87;100.00;100810.64;1773125;79;20983;-79
2022/11/20 02:26:40;;;;;;;;;;;;;;;2.87;100.00;100812.41;1805197;78;21016;-61
2022/11/20 02:29:07;;;;;;;10.98;8.50;;;;;;;2.81;100.00;100815.48;1801817;79;20121;-63
2022/11/20 02:31:38;;;;;;;11.30;8.50;;;;;;;2.78;100.00;100822.14;1796739;79;21143;-65
2022/11/20 02:34:05;;;;;;;11.38;9.13;;;;;;;2.75;100.00;100805.64;1771782;80;21547;-62
2022/11/20 02:36:35;;;;;;;10.75;8.30;;;;;;;2.70;100.00;100798.28;1772497;80;21006;-62
2022/11/20 02:39:03;;;;;;;12.13;9.40;;;;;;;2.66;100.00;100802.84;1772519;80;20936;-63
2022/11/20 02:41:32;;;;;;;10.53;7.90;;;;;;;2.62;100.00;100811.74;1772622;80;20896;-65
2022/11/20 02:44:00;;;;;;;9.35;7.28;;;;;;;2.62;100.00;100815.61;1771722;80;21255;-62
2022/11/20 02:46:28;;;;;;;11.10;8.85;;;;;;;2.61;100.00;100815.27;1772887;80;21047;-61
2022/11/20 02:48:56;;;;;;;12.55;9.65;;;;;;;2.54;100.00;100815.38;1773373;79;21080;-61
2022/11/20 02:51:24;;;;;;;11.88;9.28;;;;;;;2.52;100.00;100808.70;1772484;80;20920;-61
2022/11/20 02:53:52;;;;;;;9.48;7.45;;;;;;;2.53;100.00;100811.14;1760669;80;20997;-73
2022/11/20 02:56:19;;;;;;;10.60;8.80;;;;;;;2.53;100.00;100820.63;1767201;79;21256;-61
2022/11/20 02:58:46;;;;;;;11.80;9.43;;;;;;;2.50;100.00;100833.28;1804150;78;20929;-61
2022/11/20 03:01:14;;;;;;;12.37;10.08;;;;;;;2.49;100.00;100831.62;1804169;78;20955;-62
2022/11/20 03:03:41;;;;;;;12.82;9.85;;;;;;;2.49;100.00;100823.90;1803581;78;20947;-77
2022/11/20 03:06:09;;;;;;;11.35;9.18;;;;;;;2.50;100.00;100826.84;1818863;78;20967;-63
2022/11/20 03:08:36;;;;;;;12.15;10.05;;;;;;;2.61;100.00;100834.56;1818985;78;21199;-60
2022/11/20 03:11:05;;;;;;;11.65;9.30;;;;;;;2.62;100.00;100821.22;1818846;78;20915;-64
2022/11/20 03:13:34;;;;;;;12.50;9.38;;;;;;;2.59;100.00;100822.73;1818129;78;20943;-79
2022/11/20 03:16:13;;;;;;;12.45;9.30;;;;;;;2.65;100.00;100829.53;1818880;78;21045;-65
2022/11/20 03:18:41;;;;;;;11.45;9.15;;;;;;;2.68;100.00;100833.13;1812002;78;20897;-61
2022/11/20 03:21:09;;;;;;;11.03;9.05;;;;;;;2.73;100.00;100835.81;1819191;78;21143;-65
2022/11/20 03:23:38;;;;;;;12.88;9.60;;;;;;;2.78;100.00;100830.69;1818291;78;21259;-67
2022/11/20 03:26:14;;;;;;;10.60;8.65;;;;;;;2.83;100.00;100838.05;1818260;78;21070;-62
2022/11/20 03:28:48;;;;;;;11.53;8.73;;;;;;;2.87;100.00;100822.23;1818945;78;21023;-61
2022/11/20 03:31:15;;;;;;;12.88;8.30;;;;;;;2.87;100.00;100818.84;1817914;78;20951;-80
2022/11/20 03:33:43;;;;;;;11.93;9.45;;;;;;;2.91;100.00;100817.66;1818865;78;21243;-61
2022/11/20 03:36:13;;;;;;;10.58;8.10;;;;;;;2.94;100.00;100807.13;1818815;78;20837;-61
2022/11/20 03:38:41;;;;;;;10.95;8.45;;;;;;;2.92;100.00;100811.13;1818943;78;21378;-80
2022/11/20 03:41:18;;;;;;;12.53;9.05;;;;;;;2.93;100.00;100791.34;1817804;78;21599;-78
2022/11/20 03:43:50;;;;;;;11.70;8.68;;;;;;;2.92;100.00;100787.14;1812590;78;20876;-61
2022/11/20 03:46:17;;;;;;;10.78;7.87;;;;;;;2.91;100.00;100777.28;1796889;78;22453;-61
2022/11/20 03:48:45;;;;;;;10.90;8.58;;;;;;;2.90;100.00;100774.84;1818222;78;21418;-63
2022/11/20 03:51:23;;;;;;;11.83;8.98;;;;;;;2.94;100.00;100789.11;1809618;78;20986;-62
2022/11/20 03:53:54;;;;;;;13.30;9.35;;;;;;;3.00;100.00;100805.38;1786637;80;21058;-61
2022/11/20 03:56:25;;;;;;;11.05;8.83;;;;;;;3.02;100.00;100806.05;1786441;79;20894;-80
2022/11/20 03:58:52;;;;;;;12.78;8.80;;;;;;;2.99;100.00;100811.91;1748923;81;22354;-62
2022/11/20 04:01:27;;;;;;;11.78;8.40;;;;;;;3.00;100.00;100818.72;1730961;82;21066;-61
2022/11/20 04:03:55;;;;;;;11.57;8.23;;;;;;;3.00;100.00;100831.13;1730381;82;21579;-65
2022/11/20 04:06:29;;;;;;;11.22;8.50;;;;;;;2.97;100.00;100830.08;1706175;82;20982;-79
2022/11/20 04:08:57;;;;;;;11.38;8.40;;;;;;;3.02;100.00;100833.09;1716875;82;22405;-66
2022/11/20 04:11:31;;;;;;;12.95;9.68;;;;;;;3.08;100.00;100842.94;1717378;82;21275;-68
2022/11/20 04:14:04;;;;;;;13.53;9.50;;;;;;;3.09;100.00;100842.45;1717432;82;20925;-62
2022/11/20 04:16:34;;;;;;;12.37;8.70;;;;;;;3.08;100.00;100838.25;1716623;82;21045;-65
2022/11/20 04:19:04;;;;;;;11.85;9.45;;;;;;;3.06;100.00;100834.97;1717407;83;21026;-61
2022/11/20 04:21:31;;;;;;;12.85;8.63;;;;;;;3.08;100.00;100835.20;1717546;83;21292;-61
2022/11/20 04:23:58;;;;;;;11.15;7.83;;;;;;;3.08;100.00;100845.51;1717400;82;21204;-79
2022/11/20 04:26:27;;;;;;;12.25;8.90;;;;;;;3.10;100.00;100856.49;1717082;82;20932;-61
2022/11/20 04:28:54;;;;;;;11.50;8.55;;;;;;;3.13;100.00;100858.02;1716885;83;20916;-61
2022/11/20 04:31:26;;;;;;;12.05;8.80;;;;;;;3.13;100.00;100862.70;1717379;82;21066;-61
2022/11/20 04:33:54;;;;;;;12.37;9.10;;;;;;;3.21;100.00;100861.28;1717557;83;20987;-61
2022/11/20 04:36:25;;;;;;;12.70;9.28;;;;;;;3.28;100.00;100860.68;1717088;82;21044;-62
2022/11/20 04:38:53;;;;;;;12.93;9.83;;;;;;;3.28;100.00;100867.59;1717088;83;20990;-61
2022/11/20 04:41:22;;;;;;;12.93;9.50;;;;;;;3.23;100.00;100864.09;1717401;83;21006;-61
2022/11/20 04:43:51;;;;;;;12.82;9.70;;;;;;;3.21;100.00;100853.55;1717386;83;21529;-61
2022/11/20 04:46:18;;;;;;;13.13;9.75;;;;;;;3.20;100.00;100857.89;1716935;83;21004;-70
2022/11/20 04:48:47;;;;;;;12.55;8.83;;;;;;;3.11;100.00;100867.17;1716791;82;21294;-60
2022/11/20 04:51:14;;;;;;;13.20;9.28;;;;;;;3.07;100.00;100870.92;1717331;83;21224;-62
2022/11/20 04:53:42;;;;;;;13.25;9.30;;;;;;;3.08;100.00;100876.41;1717293;82;20928;-61
2022/11/20 04:56:10;;;;;;;12.25;9.40;;;;;;;3.05;100.00;100888.23;1717280;82;21117;-72
2022/11/20 04:58:38;;;;;;;11.15;8.30;;;;;;;3.04;100.00;100903.35;1706532;82;21038;-77
2022/11/20 05:01:17;;;;;;;14.00;10.15;;;;;;;3.05;100.00;100915.28;1688554;84;21271;-63
2022/11/20 05:03:44;;;;;;;12.70;9.00;;;;;;;3.09;100.00;100923.12;1688587;84;21533;-63
2022/11/20 05:06:13;;;;;;;13.30;8.83;;;;;;;3.19;100.00;100905.69;1688024;83;20935;-68
2022/11/20 05:08:41;;;;;;;13.18;9.43;;;;;;;3.24;100.00;100912.58;1688032;84;21029;-63
2022/11/20 05:11:11;;;;;;;12.53;9.35;;;;;;;3.29;100.00;100918.18;1688632;84;21441;-63
2022/11/20 05:13:40;;;;;;;12.37;8.73;;;;;;;3.27;100.00;100904.61;1688970;84;21497;-63
2022/11/20 05:16:12;;;;;;;11.70;8.60;;;;;;;3.25;100.00;100884.58;1715179;82;20971;-78
2022/11/20 05:18:40;;;;;;;11.97;8.30;;;;;;;3.20;100.00;100882.84;1717304;83;21100;-62
2022/11/20 05:21:08;;;;;;;13.62;9.65;;;;;;;3.17;100.00;100895.01;1717510;83;20978;-63
2022/11/20 05:23:36;;;;;;;13.30;9.23;;;;;;;3.17;100.00;100898.88;1717485;82;20927;-63
2022/11/20 05:26:04;;;;;;;11.70;8.53;;;;;;;3.20;100.00;100897.01;1717469;82;21133;-81
2022/11/20 05:28:31;;;;;;;12.10;8.85;;;;;;;3.22;100.00;100895.12;1716791;82;20949;-63
2022/11/20 05:31:09;;;;;;;12.55;9.18;;;;;;;3.26;100.00;100907.66;1717433;83;21066;-61
2022/11/20 05:33:39;;;;;;;13.22;9.60;;;;;;;3.31;100.00;100922.28;1717541;83;21135;-62
2022/11/20 05:36:08;;;;;;;11.90;9.10;;;;;;;3.38;100.00;100935.52;1667867;83;20999;-81
2022/11/20 05:38:37;;;;;;;12.33;9.38;;;;;;;3.47;100.00;100937.36;1717684;83;21196;-62
2022/11/20 05:41:07;;;;;;;11.78;8.98;;;;;;;3.49;100.00;100932.92;1717519;82;20931;-63
2022/11/20 05:43:36;;;;;;;12.25;8.68;;;;;;;3.53;100.00;100929.64;1717844;82;20936;-62
2022/11/20 05:46:03;;;;;;;13.22;8.73;;;;;;;3.53;100.00;100929.64;1716911;83;21038;-81
2022/11/20 05:48:31;;;;;;;12.78;9.15;;;;;;;3.54;100.00;100940.28;1717248;83;22325;-62
2022/11/20 05:50:59;;;;;;;12.45;8.93;;;;;;;3.59;100.00;100939.45;1717754;82;21178;-62
2022/11/20 05:53:26;;;;;;;12.53;8.63;;;;;;;3.58;100.00;100942.97;1690106;82;21007;-63
2022/11/20 05:56:01;;;;;;;12.15;8.40;;;;;;;3.58;100.00;100947.66;1688925;84;21599;-62
2022/11/20 05:58:29;;;;;;;11.85;8.48;;;;;;;3.62;100.00;100943.08;1688829;84;21061;-61
2022/11/20 06:01:07;;;;;;;13.05;8.55;;;;;;;3.56;100.00;100957.72;1689325;84;20943;-61
2022/11/20 06:03:34;;;;;;;11.38;8.13;;;;;;;3.54;100.00;100950.13;1687671;84;21183;-80
2022/11/20 06:06:02;;;;;;;12.65;8.55;;;;;;;3.44;100.00;100929.87;1687763;82;20979;-61
2022/11/20 06:08:31;;;;;;;12.70;8.35;;;;;;;3.41;100.00;100944.30;1688863;84;21077;-61
2022/11/20 06:10:58;;;;;;;9.75;7.83;;;;;;;3.36;100.00;100950.27;1688937;84;21449;-63
2022/11/20 06:13:25;;;;;;;10.20;7.30;;;;;;;3.34;100.00;100933.65;1668213;83;21012;-62
2022/11/20 06:15:54;;;;;;;11.12;7.90;;;;;;;3.28;100.00;100941.84;1710978;83;21008;-79
2022/11/20 06:18:21;;;;;;;10.72;7.90;;;;;;;3.21;100.00;100934.70;1711852;83;21387;-62
2022/11/20 06:20:48;;;;;;;10.58;7.97;;;;;;;3.22;100.00;100919.59;1712053;83;21003;-61
2022/11/20 06:23:16;;;;;;;10.72;7.90;;;;;;;3.20;100.00;100927.45;1712275;83;21035;-61
2022/11/20 06:25:44;;;;;;;13.48;8.23;;;;;;;3.15;100.00;100940.70;1712387;83;21076;-68
2022/11/20 06:28:12;;;;;;;10.23;7.62;;;;;;;3.14;100.00;100935.20;1710846;83;21127;-62
2022/11/20 06:30:51;;;;;;;12.18;9.03;;;;;;;3.13;100.00;100923.23;1680765;83;21011;-62
2022/11/20 06:33:19;;;;;;;12.43;8.83;;;;;;;3.08;100.00;100947.25;1681415;83;20962;-62
2022/11/20 06:35:46;;;;;;;10.88;8.05;;;;;;;3.12;100.00;100951.70;1681363;83;20958;-80
2022/11/20 06:38:14;;;;;;;11.73;8.30;;;;;;;3.16;100.00;100937.17;1680641;83;21083;-64
2022/11/20 06:40:41;;;;;;;12.30;8.48;;;;;;;3.13;100.00;100932.25;1681534;83;21245;-62
2022/11/20 06:43:10;;;;;;;13.48;9.35;;;;;;;3.15;100.00;100924.42;1681447;83;21035;-61
2022/11/20 06:45:37;;;;;;;11.45;8.78;;;;;;;3.15;100.00;100934.73;1681265;83;20962;-61
2022/11/20 06:48:05;;;;;;;13.08;9.60;;;;;;;3.16;100.00;100939.75;1680473;83;21080;-78
2022/11/20 06:50:33;;;;;;;12.60;8.40;;;;;;;3.22;100.00;100937.19;1681227;83;21123;-61
2022/11/20 06:53:02;;;;;;;12.63;8.33;;;;;;;3.27;100.00;100927.80;1681113;83;21182;-61
2022/11/20 06:55:30;;;;;;;11.70;8.60;;;;;;;3.25;100.00;100922.75;1681029;83;21022;-61
2022/11/20 06:57:57;;;;;;;12.53;9.20;;;;;;;3.21;100.00;100904.61;1680674;83;21512;-65
2022/11/20 07:00:24;;;;;;;10.43;7.70;;;;;;;3.16;100.00;100893.38;1680584;83;20997;-63
2022/11/20 07:02:51;;;;;;;13.43;9.03;;;;;;;3.15;100.00;100902.05;1681159;83;21067;-65
2022/11/20 07:05:18;;;;;;;12.70;8.85;;;;;;;3.11;100.00;100895.50;1659221;86;21344;-61
2022/11/20 07:07:47;;;;;;;16.55;9.25;;;;;;;3.05;100.00;100882.27;1642383;85;20962;-63
2022/11/20 07:10:15;;;;;;;11.75;8.00;;;;;;;3.03;100.00;100879.83;1632157;86;21637;-77
2022/11/20 07:12:42;;;;;;;12.13;8.48;;;;;;;3.02;100.00;100887.19;1632226;86;21499;-61
2022/11/20 07:15:10;;;;;;;12.10;8.20;;;;;;;3.02;100.00;100879.92;1634648;86;21033;-61
2022/11/20 07:17:38;;;;;;;10.60;7.78;;;;;;;3.00;100.00;100866.37;1632520;86;21181;-63
2022/11/20 07:20:06;;;;;;;10.55;7.78;;;;;;;2.99;100.00;100851.36;1635868;86;21065;-65
2022/11/20 07:22:33;;;;;;;12.15;8.23;;;;;;;2.96;100.00;100852.91;1639893;86;22329;-66
2022/11/20 07:25:01;;;;;;;11.03;7.72;;;;;;;2.93;100.00;100855.72;1659288;85;21072;-62
2022/11/20 07:27:29;;;;;;;10.85;8.20;;;;;;;2.91;100.00;100856.29;1659524;85;21598;-62
2022/11/20 07:29:56;;;;;;;11.38;8.13;;;;;;;2.88;100.00;100853.50;1652956;85;21252;-62
2022/11/20 07:32:23;;;;;;;12.07;8.88;;;;;;;2.86;100.00;100855.36;1642712;87;20982;-69
2022/11/20 07:34:51;;;;;;;11.93;8.70;;;;;;;2.84;100.00;100856.41;1643094;87;21478;-68
2022/11/20 07:37:18;;;;;;;12.78;8.83;;;;;;;2.84;100.00;100848.69;1643621;87;21007;-62
2022/11/20 07:39:45;;;;;;;14.05;8.65;;;;;;;2.80;100.00;100872.56;1643554;87;21031;-62
2022/11/20 07:42:12;;;;;;;10.13;7.55;;;;;;;2.80;100.00;100878.18;1643100;87;21172;-76
2022/11/20 07:44:40;;;;;;;13.00;7.87;;;;;;;2.79;100.00;100884.27;1643254;87;21078;-61
2022/11/20 07:47:07;;;;;;;10.68;7.97;;;;;;;2.77;100.00;100881.83;1643641;87;20999;-67
2022/11/20 07:49:34;;;;;;;9.55;6.83;;;;;;;2.78;100.00;100887.80;1643753;87;21482;-64
2022/11/20 07:52:01;;;;;;;11.43;7.35;;;;;;;2.78;100.00;100878.78;1643590;87;20967;-68
2022/11/20 07:54:29;;;;;;;12.07;8.30;;;;;;;2.78;100.00;100862.05;1642626;87;21274;-64
2022/11/20 07:56:57;;;;;;;11.40;7.37;;;;;;;2.81;100.00;100847.66;1643613;87;21030;-64
2022/11/20 07:59:23;;;;;;;12.37;8.73;;;;;;;2.79;100.00;100844.37;1643666;87;21018;-64
2022/11/20 08:01:52;;;;;;;11.30;8.10;;;;;;;2.82;100.00;100854.44;1656292;85;20996;-64
2022/11/20 08:04:20;;;;;;;11.83;7.75;;;;;;;2.82;100.00;100873.75;1650381;85;21028;-72
2022/11/20 08:06:47;;;;;;;10.43;7.25;;;;;;;2.87;100.00;100871.63;1657983;85;21172;-64
2022/11/20 08:09:15;;;;;;;12.03;7.87;;;;;;;2.89;100.00;100877.49;1657196;85;21037;-64
2022/11/20 08:14:29;;;;;;;12.47;8.13;;;;;;;2.95;100.00;100879.58;1643598;85;21065;-64
2022/11/20 08:16:56;;;;;;;14.07;9.18;;;;;;;2.98;100.00;100866.47;1643548;85;21066;-63
2022/11/20 08:19:24;;;;;;;14.70;8.63;;;;;;;3.01;100.00;100884.27;1643582;85;21279;-63
2022/11/20 08:21:51;;;;;;;11.20;7.40;;;;;;;2.97;100.00;100862.73;1644757;85;21477;-74
2022/11/20 08:24:18;;;;;;;12.75;9.05;;;;;;;2.92;100.00;100848.94;1660099;85;20995;-65
2022/11/20 08:26:45;;;;;;;14.75;9.90;;;;;;;2.88;100.00;100847.06;1649141;85;21183;-64
2022/11/20 08:29:12;;;;;;;14.00;9.20;;;;;;;2.86;100.00;100842.48;1669268;85;21005;-68
2022/11/20 08:31:39;;;;;;;13.88;9.60;;;;;;;2.82;100.00;100826.11;1669570;85;21450;-66
2022/11/20 08:34:06;;;;;;;11.50;8.10;;;;;;;2.80;100.00;100830.08;1653866;85;20900;-69
2022/11/20 08:36:34;;;;;;;11.90;7.87;;;;;;;2.79;100.00;100818.62;1642576;85;21137;-74
2022/11/20 08:39:02;;;;;;;12.45;8.85;;;;;;;2.75;100.00;100810.79;1643624;85;21839;-65
2022/11/20 08:41:32;;;;;;;13.58;9.23;;;;;;;2.76;100.00;100826.11;1643516;85;21019;-66
2022/11/20 08:44:03;;;;;;;11.28;7.22;;;;;;;2.80;100.00;100836.52;1646332;85;21338;-65
2022/11/20 08:46:37;;;;;;;10.95;7.58;;;;;;;2.80;100.00;100831.36;1658058;85;21046;-65
2022/11/20 08:49:07;;;;;;;13.22;7.62;;;;;;;2.79;100.00;100841.80;1669599;85;21024;-65
2022/11/20 08:51:35;;;;;;;11.33;8.03;;;;;;;2.86;100.00;100844.25;1649694;85;21030;-64
2022/11/20 08:54:02;;;;;;;11.78;8.28;;;;;;;2.93;100.00;100843.66;1643873;87;21045;-67
2022/11/20 08:56:30;;;;;;;12.63;7.92;;;;;;;2.94;100.00;100835.45;1648262;85;21151;-63
2022/11/20 08:58:59;;;;;;;11.25;7.65;;;;;;;2.97;100.00;100819.77;1670839;85;21126;-64
2022/11/20 09:01:26;;;;;;;12.50;8.30;;;;;;;3.00;100.00;100811.81;1670893;85;20971;-63
2022/11/20 09:03:56;;;;;;;13.00;8.75;;;;;;;3.02;100.00;100800.91;1670337;85;20964;-72
2022/11/20 09:06:25;;;;;;;12.65;9.10;;;;;;;3.00;100.00;100802.80;1670404;85;21100;-72
2022/11/20 09:08:53;;;;;;;11.45;7.90;;;;;;;2.97;100.00;100793.20;1670770;85;21346;-63
2022/11/20 09:11:21;;;;;;;12.85;8.65;;;;;;;2.97;100.00;100795.31;1670848;85;21023;-62
2022/11/20 09:13:49;;;;;;;14.83;9.78;;;;;;;2.98;100.00;100801.27;1670725;85;20939;-72
2022/11/20 09:16:16;;;;;;;14.80;8.90;;;;;;;2.94;100.00;100803.27;1670488;85;21591;-72
2022/11/20 09:18:44;;;;;;;14.90;10.08;;;;;;;2.90;100.00;100781.27;1658432;85;21071;-64
2022/11/20 09:21:12;;;;;;;15.18;9.80;;;;;;;2.91;100.00;100804.79;1669378;85;21138;-63
2022/11/20 09:23:41;;;;;;;18.90;12.18;;;;;;;2.93;100.00;100808.08;1669484;85;20900;-63
2022/11/20 09:26:12;;;;;;;15.08;9.50;;;;;;;2.93;100.00;100814.04;1668306;85;20963;-72
2022/11/20 09:28:41;;;;;;;12.78;8.53;;;;;;;3.01;100.00;100816.02;1669469;85;21075;-64
2022/11/20 09:31:10;;;;;;;14.23;9.45;;;;;;;3.07;100.00;100812.97;1663651;85;21004;-64
2022/11/20 09:33:37;;;;;;;12.05;8.78;;;;;;;3.08;100.00;100812.02;1685153;83;21130;-73
2022/11/20 09:36:05;;;;;;;11.55;8.73;;;;;;;3.12;100.00;100817.28;1686201;83;20992;-73
2022/11/20 09:38:33;;;;;;;12.60;8.43;;;;;;;3.20;100.00;100817.15;1687332;83;20985;-65
2022/11/20 09:41:06;;;;;;;12.18;8.90;;;;;;;3.21;100.00;100809.76;1687472;84;21464;-63
2022/11/20 09:44:09;;;;;;;12.78;8.88;;;;;;;3.24;100.00;100807.76;1687293;83;21091;-67
2022/11/20 09:47:00;;;;;;;14.23;9.35;;;;;;;3.24;100.00;100839.15;1706901;82;21797;-65
2022/11/20 09:49:49;;;;;;;17.85;12.40;;;;;;;3.24;100.00;100834.81;1694193;84;21018;-64
2022/11/20 09:52:39;;;;;;;15.10;10.38;;;;;;;3.29;100.00;100822.84;1676907;84;20955;-65
2022/11/20 09:55:09;;;;;;;12.80;9.53;;;;;;;3.38;100.00;100816.98;1687198;85;21581;-64
2022/11/20 09:57:41;;;;;;;12.53;8.80;;;;;;;3.35;100.00;100808.20;1686762;85;21858;-65
2022/11/20 10:00:16;;;;;;;12.40;8.98;;;;;;;3.40;100.00;100793.17;1687099;85;21232;-69
2022/11/20 10:02:55;;;;;;;12.95;8.95;;;;;;;3.48;100.00;100781.77;1685739;85;21525;-65
2022/11/20 10:05:45;;;;;;;13.68;9.33;;;;;;;3.60;100.00;100789.01;1687835;85;21069;-65
2022/11/20 10:08:23;;;;;;;12.47;9.03;;;;;;;3.64;100.00;100808.44;1686054;85;21078;-67
2022/11/20 10:10:56;;;;;;;13.43;9.85;;;;;;;3.67;100.00;100822.34;1686544;85;21567;-66
2022/11/20 10:13:41;;;;;;;;;;;;;;;3.62;100.00;100806.44;1646258;85;21258;-69
2022/11/20 10:16:39;;;;;;;13.22;8.55;;;;;;;3.59;100.00;100792.03;1661885;85;20398;-66
2022/11/20 10:19:43;;;;;;;13.22;8.98;;;;;;;3.65;100.00;100801.86;1685755;83;20979;-66
2022/11/20 10:22:43;;;;;;;18.55;9.65;;;;;;;3.66;100.00;100782.86;1667978;85;21093;-64
2022/11/20 10:25:24;;;;;;;14.55;10.13;;;;;;;3.68;100.00;100754.87;1694837;83;21485;-64
2022/11/20 10:28:17;;;;;;;13.53;9.43;;;;;;;3.68;100.00;100754.87;1694737;84;21211;-69
2022/11/20 10:30:46;;;;;;;14.43;9.20;;;;;;;3.62;100.00;100756.98;1632092;85;20959;-66
2022/11/20 10:33:24;;;;;;;14.53;9.55;;;;;;;3.59;100.00;100768.83;1687065;85;20955;-65
2022/11/20 10:36:09;;;;;;;13.75;8.93;;;;;;;3.57;100.00;100754.45;1686708;85;21078;-65
2022/11/20 10:38:40;;;;;;;13.85;9.95;;;;;;;3.56;100.00;100736.88;1687130;85;20951;-65
2022/11/20 10:41:26;;;;;;;14.50;9.68;;;;;;;3.52;100.00;100718.72;1687331;85;21251;-74
2022/11/20 10:44:07;;;;;;;13.78;9.03;;;;;;;3.45;100.00;100717.61;1659814;86;21406;-64
2022/11/20 10:46:43;;;;;;;11.93;8.75;;;;;;;3.41;100.00;100698.20;1658601;86;21501;-73
2022/11/20 10:49:14;;;;;;;12.68;9.38;;;;;;;3.40;100.00;100691.38;1639114;86;21939;-65
2022/11/20 10:52:08;;;;;;;13.83;9.78;;;;;;;3.35;100.00;100680.65;1668621;85;21098;-66
2022/11/20 10:54:56;;;;;;;14.50;9.98;;;;;;;3.29;100.00;100669.07;1677182;85;21499;-67
2022/11/20 10:57:49;;;;;;;14.20;9.75;;;;;;;3.17;100.00;100666.21;1625335;86;21022;-65
2022/11/20 11:00:17;;;;;;;14.50;9.53;;;;;;;3.06;100.00;100667.55;1638149;87;22043;-66
2022/11/20 11:02:51;;;;;;;15.65;10.32;;;;;;;3.04;100.00;100672.03;1640987;85;21563;-64
2022/11/20 11:05:41;;;;;;;15.30;10.18;;;;;;;3.03;100.00;100662.64;1642730;86;21064;-67
2022/11/20 11:08:14;;;;;;;16.93;11.00;;;;;;;2.99;100.00;100652.25;1642562;87;22200;-66
2022/11/20 11:10:57;;;;;;;16.75;10.15;;;;;;;2.88;100.00;100651.85;1642507;86;20931;-66
2022/11/20 11:13:27;;;;;;;14.50;9.98;;;;;;;2.85;100.00;100652.91;1642528;86;21591;-65
2022/11/20 11:15:54;;;;;;;15.68;10.88;;;;;;;2.81;100.00;100655.86;1642206;87;21015;-64
2022/11/20 11:18:34;;;;;;;16.70;10.72;;;;;;;2.81;100.00;100645.09;1642476;87;20999;-65
2022/11/20 11:21:04;;;;;;;16.05;10.32;;;;;;;2.80;100.00;100632.31;1641874;87;21246;-70
2022/11/20 11:23:41;;;;;;;16.00;10.85;;;;;;;2.77;100.00;100636.45;1642429;87;21058;-67
2022/11/20 11:26:22;;;;;;;16.20;10.95;;;;;;;2.76;100.00;100624.50;1642397;87;21504;-65
2022/11/20 11:28:58;;;;;;;16.77;11.22;;;;;;;2.84;100.00;100633.70;1640605;87;21141;-66
2022/11/20 11:31:31;;;;;;;17.02;11.57;;;;;;;2.83;100.00;100630.31;1641573;85;21007;-66
2022/11/20 11:34:17;;;;;;;15.72;10.30;;;;;;;2.85;100.00;100628.92;1648110;86;21269;-75
2022/11/20 11:36:57;;;;;;;17.45;11.73;;;;;;;2.91;100.00;100624.55;1627473;88;21491;-68